Time;durP1;ratioP1;P1;durP2;ratioP2;P2;SDS_P1;SDS_P2;PMS_P1;PMS_P2;Temp;Humidity;BMP_temperature;BMP_pressure;BME280_temperature;BME280_humidity;BME280_pressure;Samples;Min_cycle;Max_cycle;Signal;HPM_P1;HPM_P2
2023/10/04 00:00:34;;;;;;;1.83;1.70;;;;;;;13.42;59.51;101898.44;5026036;27;96900;-60
2023/10/04 00:03:00;;;;;;;3.33;2.13;;;;;;;13.40;59.68;101894.66;5026491;27;97251;-61
2023/10/04 00:05:25;;;;;;;2.30;1.53;;;;;;;13.41;59.70;101893.38;5023787;27;97151;-60
2023/10/04 00:07:53;;;;;;;2.97;1.70;;;;;;;13.37;59.70;101892.88;5026008;27;100411;-59
2023/10/04 00:10:21;;;;;;;2.50;2.27;;;;;;;13.39;59.80;101893.13;5022310;27;97142;-60
2023/10/04 00:12:46;;;;;;;5.77;2.20;;;;;;;13.39;59.59;101898.69;5006482;27;99981;-59
2023/10/04 00:15:13;;;;;;;3.63;2.20;;;;;;;13.38;59.69;101886.81;5021112;27;97732;-60
2023/10/04 00:17:42;;;;;;;3.57;2.27;;;;;;;13.37;59.82;101892.88;5020644;27;96761;-61
2023/10/04 00:20:13;;;;;;;6.03;2.30;;;;;;;13.36;59.88;101896.94;5021514;27;97253;-60
2023/10/04 00:22:40;;;;;;;4.03;2.10;;;;;;;13.34;59.87;101902.25;5017400;27;97194;-59
2023/10/04 00:25:11;;;;;;;5.77;2.60;;;;;;;13.33;59.96;101897.94;5020902;27;97040;-60
2023/10/04 00:27:41;;;;;;;2.33;1.90;;;;;;;13.31;59.90;101897.69;5020665;27;96866;-59
2023/10/04 00:30:16;;;;;;;7.33;2.23;;;;;;;13.30;59.89;101904.50;5026085;27;96877;-60
2023/10/04 00:32:44;;;;;;;2.20;2.00;;;;;;;13.29;59.96;101906.53;5022015;27;96978;-58
2023/10/04 00:35:11;;;;;;;3.00;1.80;;;;;;;13.32;59.97;101910.34;5016630;27;97211;-60
2023/10/04 00:37:37;;;;;;;4.67;1.83;;;;;;;13.34;60.12;101927.25;5024073;27;97156;-58
2023/10/04 00:40:12;;;;;;;2.40;2.07;;;;;;;13.34;59.84;101907.81;5025072;27;97418;-63
2023/10/04 00:42:37;;;;;;;2.57;2.20;;;;;;;13.31;59.88;101906.78;5020051;27;97119;-59
2023/10/04 00:45:03;;;;;;;4.37;2.50;;;;;;;13.31;59.95;101911.59;5021702;27;98024;-62
2023/10/04 00:47:31;;;;;;;2.90;2.40;;;;;;;13.32;59.96;101913.09;5023689;27;97172;-61
2023/10/04 00:49:59;;;;;;;4.20;2.43;;;;;;;13.33;59.74;101917.38;5022562;27;97005;-62
2023/10/04 00:52:24;;;;;;;4.60;2.70;;;;;;;13.33;59.90;101915.38;5022812;27;97170;-63
2023/10/04 00:54:50;;;;;;;5.80;2.33;;;;;;;13.35;59.86;101928.75;5020423;27;97339;-61
2023/10/04 00:57:16;;;;;;;2.70;2.37;;;;;;;13.34;59.89;101914.09;5021026;27;97102;-61
2023/10/04 00:59:42;;;;;;;7.43;2.10;;;;;;;13.35;59.89;101925.97;5020270;27;97307;-59
2023/10/04 01:02:09;;;;;;;3.07;1.70;;;;;;;13.35;59.79;101928.75;5025206;27;97370;-61
2023/10/04 01:04:34;;;;;;;2.83;1.97;;;;;;;13.36;59.83;101924.72;5018441;27;97184;-61
2023/10/04 01:06:59;;;;;;;4.20;2.30;;;;;;;13.37;59.75;101920.66;5020711;27;96889;-60
2023/10/04 01:09:26;;;;;;;2.20;1.70;;;;;;;13.37;59.75;101927.00;5027212;27;97105;-59
2023/10/04 01:11:51;;;;;;;2.73;1.80;;;;;;;13.36;59.82;101919.91;5019118;27;97325;-63
2023/10/04 01:14:25;;;;;;;2.10;1.63;;;;;;;13.38;59.76;101919.41;5022237;27;97135;-61
2023/10/04 01:16:52;;;;;;;4.10;1.90;;;;;;;13.38;59.65;101919.41;5022133;27;97226;-61
2023/10/04 01:19:18;;;;;;;5.77;2.00;;;;;;;13.36;59.65;101908.78;5021742;27;97450;-63
2023/10/04 01:21:45;;;;;;;6.97;2.37;;;;;;;13.34;59.79;101916.13;5018483;27;96921;-62
2023/10/04 01:24:11;;;;;;;2.43;1.57;;;;;;;13.35;59.64;101917.63;5021624;27;97139;-59
2023/10/04 01:26:37;;;;;;;3.97;2.10;;;;;;;13.31;59.76;101917.13;5019438;27;97109;-62
2023/10/04 01:29:08;;;;;;;8.70;1.60;;;;;;;13.31;59.82;101917.13;5017878;27;96872;-63
2023/10/04 01:31:34;;;;;;;4.23;1.73;;;;;;;13.31;59.66;101922.69;5022534;27;97177;-62
2023/10/04 01:33:59;;;;;;;2.53;1.40;;;;;;;13.32;59.70;101924.22;5005387;27;98616;-61
2023/10/04 01:36:25;;;;;;;2.53;1.50;;;;;;;13.30;59.53;101921.94;5023332;27;96783;-63
2023/10/04 01:38:51;;;;;;;2.47;1.87;;;;;;;13.31;59.69;101925.47;5024366;27;97148;-61
2023/10/04 01:41:17;;;;;;;2.80;1.60;;;;;;;13.33;59.62;101917.38;5019151;27;97115;-63
2023/10/04 01:43:42;;;;;;;1.50;1.30;;;;;;;13.32;59.62;101919.41;5018776;27;100697;-60
2023/10/04 01:46:08;;;;;;;2.30;1.70;;;;;;;13.31;59.54;101915.13;5023429;27;96861;-62
2023/10/04 01:48:36;;;;;;;2.67;1.40;;;;;;;13.31;59.50;101915.13;5022242;27;96824;-62
2023/10/04 01:51:06;;;;;;;1.83;1.70;;;;;;;13.30;59.48;101921.16;5018147;27;96603;-59
2023/10/04 01:53:35;;;;;;;2.50;1.40;;;;;;;13.30;59.52;101921.16;5023056;27;97278;-61
2023/10/04 01:56:03;;;;;;;4.03;1.67;;;;;;;13.30;59.48;101915.59;5019868;27;97248;-60
2023/10/04 01:58:28;;;;;;;2.90;1.93;;;;;;;13.26;59.54;101907.53;5019164;27;96890;-60
2023/10/04 02:00:55;;;;;;;1.83;1.40;;;;;;;13.27;59.49;101913.84;5023190;27;97051;-60
2023/10/04 02:03:21;;;;;;;3.13;1.97;;;;;;;13.26;59.57;101917.88;5020786;27;97198;-60
2023/10/04 02:05:57;;;;;;;2.63;1.60;;;;;;;13.28;59.53;101923.69;5019977;27;97164;-60
2023/10/04 02:08:23;;;;;;;4.83;1.80;;;;;;;13.27;59.54;101919.41;5024855;27;97263;-60
2023/10/04 02:10:50;;;;;;;2.37;1.80;;;;;;;13.28;59.47;101923.69;5019831;27;97542;-62
2023/10/04 02:13:17;;;;;;;2.80;1.43;;;;;;;13.25;59.60;101922.72;5017474;27;97004;-60
2023/10/04 02:15:51;;;;;;;2.80;1.43;;;;;;;13.26;59.56;101926.22;5023886;27;97108;-60
2023/10/04 02:18:21;;;;;;;4.60;1.97;;;;;;;13.27;59.61;101931.31;5022618;27;96627;-61
2023/10/04 02:20:48;;;;;;;4.73;1.97;;;;;;;13.26;59.47;101921.44;5016319;27;97380;-61
2023/10/04 02:23:15;;;;;;;4.87;2.03;;;;;;;13.29;59.57;101925.22;5021321;27;97622;-63
2023/10/04 02:25:40;;;;;;;3.03;2.00;;;;;;;13.26;59.49;101924.22;5019834;27;97138;-61
2023/10/04 02:28:11;;;;;;;4.30;2.37;;;;;;;13.28;59.38;101929.25;5020309;27;96901;-61
2023/10/04 02:30:40;;;;;;;2.83;2.10;;;;;;;13.28;59.44;101920.91;5021345;27;97121;-63
2023/10/04 02:33:09;;;;;;;4.60;2.70;;;;;;;13.28;59.43;101926.47;5020234;27;97172;-61
2023/10/04 02:35:41;;;;;;;4.03;2.60;;;;;;;13.27;59.46;101922.19;5015483;27;97376;-63
2023/10/04 02:38:16;;;;;;;4.50;2.00;;;;;;;13.26;59.36;101931.78;5022689;27;97126;-62
2023/10/04 02:40:43;;;;;;;3.50;2.40;;;;;;;13.27;59.33;101938.88;5023136;27;97463;-61
2023/10/04 02:43:09;;;;;;;2.13;1.80;;;;;;;13.26;59.42;101938.09;5013413;27;97033;-61
2023/10/04 02:45:36;;;;;;;4.00;2.23;;;;;;;13.29;59.43;101941.91;5022015;27;97278;-63
2023/10/04 02:48:03;;;;;;;3.77;1.83;;;;;;;13.28;59.38;101940.38;5017753;27;96561;-61
2023/10/04 02:50:29;;;;;;;4.40;2.10;;;;;;;13.30;59.31;101930.28;5015171;27;97858;-61
2023/10/04 02:52:56;;;;;;;2.67;1.60;;;;;;;13.28;59.33;101941.13;5020758;27;97250;-61
2023/10/04 02:55:21;;;;;;;5.97;1.90;;;;;;;13.28;59.29;101940.38;5020731;27;97339;-59
2023/10/04 02:57:51;;;;;;;5.87;2.27;;;;;;;13.29;59.33;101939.13;5016879;27;97029;-59
2023/10/04 03:00:19;;;;;;;3.53;1.97;;;;;;;13.27;59.31;101938.88;5022085;27;97140;-59
2023/10/04 03:02:50;;;;;;;4.27;2.83;;;;;;;13.27;59.45;101938.88;5023281;27;97695;-59
2023/10/04 03:05:18;;;;;;;6.70;3.67;;;;;;;13.26;59.36;101942.91;5021519;27;97155;-59
2023/10/04 03:07:45;;;;;;;9.87;4.40;;;;;;;13.27;59.41;101941.66;5027674;27;97048;-59
2023/10/04 03:10:11;;;;;;;8.90;5.23;;;;;;;13.28;59.41;101940.38;5020788;27;97308;-58
2023/10/04 03:12:38;;;;;;;17.23;9.27;;;;;;;13.29;59.32;101950.25;5018470;27;97210;-59
2023/10/04 03:15:04;;;;;;;38.27;16.40;;;;;;;13.28;59.42;101954.28;5024177;27;97341;-59
2023/10/04 03:17:29;;;;;;;38.40;16.37;;;;;;;13.29;59.40;101959.34;5023708;27;97409;-58
2023/10/04 03:19:55;;;;;;;43.27;18.70;;;;;;;13.30;59.26;101958.06;5021157;27;97568;-59
2023/10/04 03:22:22;;;;;;;37.30;18.80;;;;;;;13.31;59.41;101948.47;5028027;27;97054;-59
2023/10/04 03:24:49;;;;;;;35.93;16.20;;;;;;;13.31;59.28;101956.81;5022644;27;97251;-58
2023/10/04 03:27:15;;;;;;;20.30;9.57;;;;;;;13.31;59.42;101958.84;5022150;27;97652;-58
2023/10/04 03:29:40;;;;;;;32.57;15.90;;;;;;;13.29;59.42;101955.81;5030705;27;97811;-59
2023/10/04 03:32:06;;;;;;;58.50;27.80;;;;;;;13.29;59.44;101958.59;5022898;27;97577;-59
2023/10/04 03:34:32;;;;;;;66.10;31.20;;;;;;;13.29;59.63;101964.16;5015426;27;96702;-58
2023/10/04 03:37:08;;;;;;;75.57;33.97;;;;;;;13.31;59.39;101962.38;5020157;27;96756;-59
2023/10/04 03:39:35;;;;;;;57.07;29.47;;;;;;;13.30;59.38;101969.19;5023593;27;97390;-58
2023/10/04 03:42:00;;;;;;;52.47;27.63;;;;;;;13.29;59.41;101970.47;5024704;27;97205;-58
2023/10/04 03:44:26;;;;;;;52.50;26.40;;;;;;;13.28;59.41;101971.72;5029053;27;97285;-59
2023/10/04 03:46:53;;;;;;;52.63;24.70;;;;;;;13.30;59.45;101971.97;5027763;27;100684;-58
2023/10/04 03:49:19;;;;;;;50.80;25.70;;;;;;;13.32;59.37;101968.72;5020665;27;97243;-59
2023/10/04 03:51:45;;;;;;;54.27;25.47;;;;;;;13.32;59.46;101974.25;5018031;27;99265;-59
2023/10/04 03:54:10;;;;;;;43.97;19.57;;;;;;;13.30;59.45;101974.75;5025148;27;97355;-59
2023/10/04 03:56:35;;;;;;;29.40;15.83;;;;;;;13.30;59.35;101973.97;5024224;27;96815;-58
2023/10/04 03:59:01;;;;;;;21.00;10.83;;;;;;;13.33;59.38;101973.00;5019534;27;97423;-58
2023/10/04 04:01:27;;;;;;;19.37;9.37;;;;;;;13.34;59.36;101971.75;5020675;27;97174;-58
2023/10/04 04:03:52;;;;;;;25.07;12.53;;;;;;;13.33;59.32;101981.31;5024308;27;96635;-59
2023/10/04 04:06:18;;;;;;;33.70;14.47;;;;;;;13.32;59.44;101969.44;5019672;27;98058;-58
2023/10/04 04:08:46;;;;;;;33.70;17.30;;;;;;;13.29;59.41;101969.69;5027809;27;97069;-58
2023/10/04 04:11:14;;;;;;;44.50;21.80;;;;;;;13.31;59.54;101961.63;5019241;27;97319;-58
2023/10/04 04:13:40;;;;;;;62.13;25.80;;;;;;;13.30;59.52;101966.41;5022909;27;97605;-58
2023/10/04 04:16:11;;;;;;;63.10;27.60;;;;;;;13.30;59.53;101969.19;5025768;27;96749;-59
2023/10/04 04:18:37;;;;;;;68.87;30.77;;;;;;;13.31;59.42;101973.50;5021265;27;96743;-58
2023/10/04 04:21:05;;;;;;;75.27;38.00;;;;;;;13.30;59.52;101968.44;5023259;27;97797;-58
2023/10/04 04:23:31;;;;;;;89.43;42.07;;;;;;;13.30;59.47;101965.66;5023611;27;96918;-59
2023/10/04 04:25:59;;;;;;;98.97;45.17;;;;;;;13.29;59.49;101964.16;5019203;27;96677;-59
2023/10/04 04:28:25;;;;;;;107.30;45.10;;;;;;;13.30;59.44;101971.97;5019257;27;96989;-58
2023/10/04 04:30:51;;;;;;;119.03;47.27;;;;;;;13.31;59.47;101962.38;5023228;27;97576;-58
2023/10/04 04:33:18;;;;;;;104.43;42.33;;;;;;;13.28;59.46;101962.63;5022011;27;96876;-58
2023/10/04 04:40:49;;;;;;;63.67;25.07;;;;;;;13.30;59.50;101976.75;5016823;27;97050;-59
2023/10/04 04:43:26;;;;;;;52.67;23.77;;;;;;;13.28;59.49;101984.84;5020164;27;97164;-58
2023/10/04 04:45:59;;;;;;;65.37;25.80;;;;;;;13.25;59.55;101988.66;5021605;27;97137;-58
2023/10/04 04:48:31;;;;;;;61.27;25.00;;;;;;;13.24;59.54;101996.22;5019188;27;97704;-58
2023/10/04 04:51:02;;;;;;;43.37;18.43;;;;;;;13.24;59.48;101996.22;5017969;27;97679;-58
2023/10/04 04:53:28;;;;;;;28.27;12.77;;;;;;;13.24;59.63;102001.03;5024742;27;97139;-59
2023/10/04 04:55:54;;;;;;;21.10;9.00;;;;;;;13.24;59.57;102001.03;5019151;27;96602;-58
2023/10/04 04:58:22;;;;;;;13.47;6.50;;;;;;;13.23;59.43;101999.50;5020440;27;97977;-59
2023/10/04 05:00:55;;;;;;;7.93;4.50;;;;;;;13.22;59.48;102000.75;5028357;27;97584;-59
2023/10/04 05:03:20;;;;;;;11.43;4.30;;;;;;;13.22;59.56;102003.53;5018007;27;96730;-59
2023/10/04 05:05:49;;;;;;;6.70;3.80;;;;;;;13.21;59.73;102010.38;5019079;27;98335;-58
2023/10/04 05:08:16;;;;;;;4.80;2.83;;;;;;;13.20;59.62;102011.63;5026722;27;97650;-58
2023/10/04 05:10:44;;;;;;;5.23;2.00;;;;;;;13.20;59.65;102015.16;5022686;27;97210;-58
2023/10/04 05:13:13;;;;;;;3.87;2.40;;;;;;;13.19;59.65;102015.66;5015428;27;97354;-60
2023/10/04 05:15:42;;;;;;;6.47;3.20;;;;;;;13.17;59.64;102012.63;5019966;27;97428;-61
2023/10/04 05:18:15;;;;;;;4.20;2.70;;;;;;;13.17;59.68;102015.41;5017794;27;96902;-61
2023/10/04 05:20:54;;;;;;;9.53;3.43;;;;;;;13.13;59.73;102010.09;5019932;27;97192;-63
2023/10/04 05:23:22;;;;;;;4.50;2.10;;;;;;;13.13;59.83;102012.09;5021136;27;97177;-61
2023/10/04 05:25:48;;;;;;;2.93;2.13;;;;;;;13.11;59.97;102022.97;5021274;27;96992;-61
2023/10/04 05:28:14;;;;;;;7.33;2.50;;;;;;;13.11;59.81;102020.94;5020946;27;98978;-60
2023/10/04 05:30:42;;;;;;;5.63;2.20;;;;;;;13.12;59.81;102022.47;5003831;27;100064;-61
2023/10/04 05:33:08;;;;;;;6.03;2.17;;;;;;;13.14;59.94;102025.53;5017293;27;97558;-60
2023/10/04 05:35:37;;;;;;;3.57;2.00;;;;;;;13.12;59.83;102019.69;5019370;27;96914;-63
2023/10/04 05:38:06;;;;;;;1.97;1.40;;;;;;;13.12;59.77;102027.28;5020785;27;97360;-62
2023/10/04 05:40:34;;;;;;;2.87;1.90;;;;;;;13.11;59.83;102023.72;5020627;27;97154;-60
2023/10/04 05:42:59;;;;;;;3.13;1.27;;;;;;;13.10;60.01;102021.47;4998673;27;97281;-61
2023/10/04 05:45:26;;;;;;;2.60;1.70;;;;;;;13.11;59.96;102032.06;5018693;27;97502;-61
2023/10/04 05:47:52;;;;;;;3.17;1.97;;;;;;;13.13;59.92;102040.66;5018614;27;97618;-62
2023/10/04 05:50:18;;;;;;;2.10;1.73;;;;;;;13.13;59.97;102039.91;5018450;27;97128;-61
2023/10/04 05:52:44;;;;;;;4.23;2.23;;;;;;;13.12;59.93;102043.94;5017631;27;97112;-60
2023/10/04 05:55:10;;;;;;;5.20;2.80;;;;;;;13.12;59.90;102047.47;5002898;27;97150;-61
2023/10/04 05:57:36;;;;;;;6.40;3.13;;;;;;;13.11;59.96;102047.97;5025983;27;98460;-61
2023/10/04 06:02:51;;;;;;;10.43;3.13;;;;;;;13.08;60.07;102049.72;5018929;27;96782;-59
2023/10/04 06:05:19;;;;;;;9.53;2.30;;;;;;;13.09;60.01;102056.81;5018347;27;96880;-59
2023/10/04 06:07:46;;;;;;;5.87;2.70;;;;;;;13.08;60.12;102049.00;5008286;27;98774;-58
2023/10/04 06:10:12;;;;;;;5.67;3.13;;;;;;;13.06;60.16;102048.72;5018645;27;97304;-59
2023/10/04 06:12:39;;;;;;;6.40;3.33;;;;;;;13.06;60.23;102045.94;5022008;27;96749;-59
2023/10/04 06:15:10;;;;;;;9.27;4.40;;;;;;;13.05;60.23;102064.63;4998044;27;97400;-59
2023/10/04 06:17:42;;;;;;;3.83;2.97;;;;;;;13.06;60.34;102065.38;5028980;27;98549;-58
2023/10/04 06:22:52;;;;;;;7.40;2.50;;;;;;;13.08;60.37;102074.75;5018994;27;96787;-58
2023/10/04 06:25:21;;;;;;;4.80;2.03;;;;;;;13.08;60.29;102080.28;5019993;27;97235;-59
2023/10/04 06:27:47;;;;;;;5.77;2.30;;;;;;;13.08;60.25;102076.78;5020211;27;98051;-59
2023/10/04 06:30:12;;;;;;;2.83;1.87;;;;;;;13.10;60.27;102080.56;5018904;27;96936;-58
2023/10/04 06:32:39;;;;;;;2.90;1.60;;;;;;;13.14;60.35;102074.78;5017156;27;97348;-59
2023/10/04 06:35:06;;;;;;;3.13;1.77;;;;;;;13.20;60.38;102090.22;5017344;27;97538;-59
2023/10/04 06:37:31;;;;;;;3.87;1.83;;;;;;;13.24;60.29;102078.84;5024826;27;97383;-59
2023/10/04 06:39:57;;;;;;;3.00;1.63;;;;;;;13.29;60.08;102080.88;5007367;27;100031;-59
2023/10/04 06:42:22;;;;;;;6.60;1.37;;;;;;;13.30;60.11;102076.84;5023247;27;96955;-59
2023/10/04 06:44:49;;;;;;;6.27;2.20;;;;;;;13.29;60.12;102064.97;5028038;27;97068;-59
2023/10/04 06:47:15;;;;;;;2.60;1.80;;;;;;;13.31;60.17;102078.38;5025098;27;97244;-59
2023/10/04 06:49:40;;;;;;;2.23;2.00;;;;;;;13.35;60.08;102090.00;5021712;27;100609;-59
2023/10/04 06:52:07;;;;;;;6.10;1.83;;;;;;;13.37;60.16;102087.47;5023934;27;97590;-62
2023/10/04 06:54:33;;;;;;;4.30;1.80;;;;;;;13.36;60.15;102086.72;5026199;27;96854;-60
2023/10/04 06:56:59;;;;;;;3.53;2.27;;;;;;;13.36;60.12;102091.53;5019922;27;97220;-64
2023/10/04 06:59:24;;;;;;;5.90;2.07;;;;;;;13.37;60.17;102090.25;5024346;27;97278;-62
2023/10/04 07:01:51;;;;;;;4.50;1.97;;;;;;;13.38;60.20;102094.56;5021665;27;96971;-59
2023/10/04 07:04:16;;;;;;;2.87;1.60;;;;;;;13.41;60.18;102124.91;5021956;27;97939;-60
2023/10/04 07:06:42;;;;;;;4.50;1.87;;;;;;;13.45;60.33;102114.28;5026519;27;96763;-59
2023/10/04 07:09:07;;;;;;;4.03;1.60;;;;;;;13.48;60.24;102120.88;5023004;27;97572;-60
2023/10/04 07:11:33;;;;;;;3.50;1.67;;;;;;;13.51;60.14;102114.31;5022057;27;97267;-59
2023/10/04 07:13:58;;;;;;;5.03;1.80;;;;;;;13.55;60.17;102112.03;5021091;27;97094;-58
2023/10/04 07:16:24;;;;;;;2.57;1.80;;;;;;;13.59;60.10;102115.34;5024227;27;96772;-61
2023/10/04 07:18:49;;;;;;;4.50;1.97;;;;;;;13.61;60.10;102124.72;5020497;27;97537;-60
2023/10/04 07:21:15;;;;;;;3.20;1.80;;;;;;;13.66;60.11;102135.09;5024261;27;97132;-58
2023/10/04 07:23:40;;;;;;;2.93;1.53;;;;;;;13.73;60.05;102151.28;5004044;27;97277;-59
2023/10/04 07:26:09;;;;;;;4.10;1.37;;;;;;;13.74;59.96;102152.81;5005164;27;98598;-61
2023/10/04 07:28:37;;;;;;;2.27;1.50;;;;;;;13.78;59.99;102149.03;5027106;27;97029;-61
2023/10/04 07:31:03;;;;;;;3.50;1.50;;;;;;;13.82;59.95;102138.41;5023816;27;96885;-60
2023/10/04 07:33:28;;;;;;;3.40;1.60;;;;;;;13.85;59.89;102148.50;5020709;27;96976;-59
2023/10/04 07:35:53;;;;;;;4.60;1.80;;;;;;;13.85;59.86;102154.84;5023130;27;97389;-60
2023/10/04 07:38:19;;;;;;;4.60;2.10;;;;;;;13.88;59.87;102159.41;5024372;27;97108;-60
2023/10/04 07:40:44;;;;;;;3.37;1.77;;;;;;;13.92;59.95;102143.22;5019641;27;97213;-60
2023/10/04 07:43:09;;;;;;;5.63;1.70;;;;;;;13.93;59.96;102150.28;5020673;27;96942;-59
2023/10/04 07:45:35;;;;;;;3.73;1.70;;;;;;;13.95;59.87;102144.97;5018029;27;97495;-61
2023/10/04 07:48:01;;;;;;;3.00;1.43;;;;;;;13.96;59.81;102152.06;5024745;27;97142;-60
2023/10/04 07:50:28;;;;;;;2.40;1.37;;;;;;;14.03;60.01;102153.63;5020246;27;97092;-59
2023/10/04 07:53:04;;;;;;;4.10;1.43;;;;;;;14.09;59.72;102152.38;5003093;27;96831;-60
2023/10/04 07:55:30;;;;;;;2.70;1.77;;;;;;;14.12;59.53;102156.94;5022489;27;97205;-59
2023/10/04 07:58:04;;;;;;;5.33;1.40;;;;;;;14.15;59.59;102158.69;5021931;27;97452;-59
2023/10/04 08:00:31;;;;;;;2.40;1.50;;;;;;;14.17;59.74;102156.16;5024575;27;97070;-59
2023/10/04 08:02:57;;;;;;;6.70;2.00;;;;;;;14.24;59.65;102158.47;5021959;27;97035;-59
2023/10/04 08:05:31;;;;;;;4.40;1.40;;;;;;;14.29;59.57;102159.72;5023056;27;97077;-60
2023/10/04 08:07:58;;;;;;;2.90;1.47;;;;;;;14.32;59.68;102165.03;5026814;27;97225;-59
2023/10/04 08:10:25;;;;;;;4.23;1.53;;;;;;;14.36;59.52;102162.78;5018672;27;97007;-59
2023/10/04 08:12:53;;;;;;;7.90;1.90;;;;;;;14.44;59.52;102169.34;5022227;27;96858;-60
2023/10/04 08:15:19;;;;;;;2.83;1.40;;;;;;;14.51;59.52;102170.84;5024302;27;96937;-61
2023/10/04 08:17:48;;;;;;;7.03;1.53;;;;;;;14.58;59.37;102170.34;5019619;27;97360;-61
2023/10/04 08:20:14;;;;;;;2.00;1.37;;;;;;;14.63;59.46;102175.13;5021610;27;97392;-62
2023/10/04 08:22:46;;;;;;;4.87;1.83;;;;;;;14.73;59.25;102159.69;5009640;27;97384;-60
2023/10/04 08:25:13;;;;;;;4.30;1.73;;;;;;;14.82;59.24;102172.59;5022799;27;97426;-60
2023/10/04 08:27:39;;;;;;;2.20;1.47;;;;;;;14.89;59.14;102167.25;5016158;27;97206;-61
2023/10/04 08:30:12;;;;;;;3.57;2.10;;;;;;;14.96;58.88;102166.00;5020293;27;97005;-63
2023/10/04 08:32:42;;;;;;;5.00;1.43;;;;;;;15.01;58.98;102162.44;5019806;27;97467;-61
2023/10/04 08:35:21;;;;;;;1.90;1.70;;;;;;;15.02;58.75;102169.53;5018032;27;97264;-61
2023/10/04 08:37:48;;;;;;;4.83;1.77;;;;;;;15.12;58.64;102162.41;5026669;27;96701;-60
2023/10/04 08:40:14;;;;;;;3.60;1.70;;;;;;;15.19;58.58;102167.47;5023495;27;97259;-60
2023/10/04 08:42:41;;;;;;;4.53;1.63;;;;;;;15.20;58.56;102172.50;5021248;27;97057;-60
2023/10/04 08:45:06;;;;;;;7.87;2.20;;;;;;;15.23;58.38;102179.09;5029068;27;97216;-62
2023/10/04 08:47:32;;;;;;;4.73;1.93;;;;;;;15.27;58.64;102176.81;5018731;27;97993;-61
2023/10/04 08:50:02;;;;;;;2.20;1.67;;;;;;;15.33;58.41;102182.38;5012096;27;96854;-64
2023/10/04 08:52:38;;;;;;;4.37;1.57;;;;;;;15.38;58.32;102185.13;4999299;27;96984;-61
2023/10/04 08:55:16;;;;;;;3.00;1.83;;;;;;;15.42;58.24;102177.25;5019354;27;97009;-60
2023/10/04 08:57:42;;;;;;;3.30;1.53;;;;;;;15.51;58.07;102193.69;4994744;27;99164;-61
2023/10/04 09:00:18;;;;;;;2.37;1.37;;;;;;;15.55;57.95;102180.22;5022365;27;97283;-60
2023/10/04 09:02:47;;;;;;;4.47;1.87;;;;;;;15.58;58.10;102197.97;5020939;27;97592;-62
2023/10/04 09:05:17;;;;;;;6.40;2.57;;;;;;;15.59;57.93;102175.13;5020124;27;97372;-60
2023/10/04 09:07:43;;;;;;;3.47;1.83;;;;;;;15.60;57.95;102184.25;5017053;27;98494;-60
2023/10/04 09:10:15;;;;;;;3.90;1.90;;;;;;;15.57;57.68;102180.47;5019044;27;96915;-61
2023/10/04 09:12:42;;;;;;;3.80;1.37;;;;;;;15.56;57.72;102167.81;5019326;27;97838;-62
2023/10/04 09:15:08;;;;;;;3.90;1.20;;;;;;;15.65;57.95;102164.72;5018315;27;97128;-59
2023/10/04 09:17:47;;;;;;;4.53;1.90;;;;;;;15.70;57.10;102172.28;5021523;27;98117;-61
2023/10/04 09:20:16;;;;;;;7.90;1.50;;;;;;;15.68;57.17;102174.06;5019681;27;97009;-60
2023/10/04 09:22:43;;;;;;;4.60;1.93;;;;;;;15.69;57.65;102175.59;5023338;27;97255;-61
2023/10/04 09:25:09;;;;;;;3.43;1.50;;;;;;;15.73;57.43;102173.28;5021477;27;97446;-61
2023/10/04 09:27:36;;;;;;;3.23;1.70;;;;;;;15.81;57.59;102185.41;5021930;27;97131;-59
2023/10/04 09:30:21;;;;;;;3.23;2.23;;;;;;;15.85;56.40;102189.47;5020621;27;97093;-59
2023/10/04 09:32:46;;;;;;;2.63;1.47;;;;;;;15.89;57.22;102186.44;5018898;27;97024;-60
2023/10/04 09:35:12;;;;;;;3.13;1.43;;;;;;;15.98;57.16;102191.69;5019261;27;97429;-59
2023/10/04 09:37:39;;;;;;;5.57;1.90;;;;;;;16.04;56.90;102194.44;5020343;27;109100;-61
2023/10/04 09:40:10;;;;;;;2.70;1.90;;;;;;;16.05;56.47;102199.50;5004072;27;97283;-59
2023/10/04 09:42:53;;;;;;;3.87;2.07;;;;;;;16.04;56.13;102195.22;5019927;27;97216;-59
2023/10/04 09:45:24;;;;;;;2.37;1.63;;;;;;;16.07;56.70;102196.94;5019671;27;98658;-60
2023/10/04 09:47:51;;;;;;;5.53;1.93;;;;;;;16.08;56.76;102200.50;5018276;27;96655;-61
2023/10/04 09:50:25;;;;;;;5.73;2.17;;;;;;;16.09;56.36;102204.81;5024382;27;97088;-60
2023/10/04 09:52:51;;;;;;;7.53;1.90;;;;;;;16.08;56.57;102204.06;5022877;27;97279;-60
2023/10/04 09:55:17;;;;;;;3.50;2.10;;;;;;;16.15;56.65;102205.53;4993250;27;99685;-60
2023/10/04 09:57:43;;;;;;;5.80;2.13;;;;;;;16.20;56.50;102208.28;5017923;27;96933;-60
2023/10/04 10:00:17;;;;;;;2.90;1.67;;;;;;;16.24;56.35;102213.59;5017339;27;97062;-60
2023/10/04 10:02:49;;;;;;;3.53;1.97;;;;;;;16.29;56.14;102210.03;5017841;27;97021;-60
2023/10/04 10:05:34;;;;;;;6.87;2.77;;;;;;;16.25;55.82;102217.91;5022785;27;97116;-60
2023/10/04 10:08:06;;;;;;;7.83;2.27;;;;;;;16.24;55.97;102219.19;5020695;27;97790;-61
2023/10/04 10:10:37;;;;;;;7.63;2.43;;;;;;;16.23;55.78;102221.22;5020257;27;96636;-58
2023/10/04 10:13:04;;;;;;;4.50;2.43;;;;;;;16.25;56.14;102224.25;5024854;27;98262;-61
2023/10/04 10:15:31;;;;;;;6.90;2.17;;;;;;;16.33;56.05;102216.81;5027481;27;97283;-60
2023/10/04 10:17:56;;;;;;;5.33;2.50;;;;;;;16.41;56.07;102215.00;5024634;27;97673;-58
2023/10/04 10:20:22;;;;;;;2.50;1.80;;;;;;;16.42;56.00;102208.13;5021887;27;96820;-61
2023/10/04 10:22:58;;;;;;;4.23;2.37;;;;;;;16.48;55.39;102210.88;5023816;27;97138;-60
2023/10/04 10:25:25;;;;;;;6.20;2.10;;;;;;;16.49;55.62;102215.19;5020945;27;97340;-59
2023/10/04 10:27:57;;;;;;;6.03;2.20;;;;;;;16.56;55.63;102218.19;5024345;27;97220;-61
2023/10/04 10:30:23;;;;;;;3.70;1.90;;;;;;;16.65;55.72;102217.09;5024510;27;97025;-59
2023/10/04 10:32:55;;;;;;;5.67;2.60;;;;;;;16.67;55.31;102208.94;5019459;27;97020;-58
2023/10/04 10:35:58;;;;;;;6.27;2.83;;;;;;;16.68;55.00;102207.66;5024500;27;99139;-61
2023/10/04 10:38:49;;;;;;;3.30;2.03;;;;;;;16.76;54.60;102216.25;5024166;27;97021;-60
2023/10/04 10:41:34;;;;;;;3.13;2.30;;;;;;;16.88;54.78;102224.00;5017260;27;97423;-61
2023/10/04 10:44:11;;;;;;;5.70;2.17;;;;;;;16.96;54.63;102224.97;5029187;27;96971;-61
2023/10/04 10:46:52;;;;;;;6.27;2.53;;;;;;;16.94;54.28;102221.94;5023220;27;97359;-60
2023/10/04 10:49:36;;;;;;;7.07;2.13;;;;;;;16.93;54.28;102228.78;5024913;27;97185;-60
2023/10/04 10:52:02;;;;;;;6.60;2.50;;;;;;;16.94;54.96;102227.53;5024465;27;97426;-60
2023/10/04 10:54:28;;;;;;;4.10;2.20;;;;;;;16.94;54.58;102230.31;5025829;27;97030;-62
2023/10/04 10:56:53;;;;;;;5.83;2.27;;;;;;;16.90;54.60;102226.28;5020375;27;97127;-61
2023/10/04 10:59:18;;;;;;;2.40;1.80;;;;;;;16.87;54.55;102225.28;5027501;27;97179;-60
2023/10/04 11:01:44;;;;;;;4.50;2.43;;;;;;;16.90;54.43;102229.81;5027566;27;103399;-59
2023/10/04 11:04:09;;;;;;;5.50;2.10;;;;;;;16.94;54.58;102224.72;5023236;27;101820;-61
2023/10/04 11:06:35;;;;;;;3.33;1.93;;;;;;;17.00;54.17;102221.88;5024782;27;97481;-60
2023/10/04 11:09:01;;;;;;;4.90;2.20;;;;;;;17.05;54.12;102221.78;5001067;27;100158;-58
2023/10/04 11:11:27;;;;;;;5.77;2.57;;;;;;;17.07;53.88;102219.25;5023335;27;97493;-60
2023/10/04 11:13:53;;;;;;;2.83;1.60;;;;;;;17.16;53.92;102215.34;5024796;27;97977;-61
2023/10/04 11:16:21;;;;;;;3.90;2.37;;;;;;;17.30;53.55;102217.72;5020681;27;97359;-59
2023/10/04 11:18:47;;;;;;;4.63;2.20;;;;;;;17.49;53.46;102211.41;5024011;27;97101;-59
2023/10/04 11:21:13;;;;;;;3.60;2.00;;;;;;;17.64;53.25;102211.75;5027709;27;97102;-60
2023/10/04 11:23:39;;;;;;;2.63;1.93;;;;;;;17.77;52.92;102218.19;5018079;27;96996;-59
2023/10/04 11:26:07;;;;;;;2.70;1.93;;;;;;;17.90;52.71;102209.09;5021627;27;96650;-60
2023/10/04 11:28:32;;;;;;;4.90;2.17;;;;;;;17.91;52.52;102197.34;5005112;27;97119;-60
2023/10/04 11:30:58;;;;;;;5.30;2.27;;;;;;;18.00;52.51;102199.75;5026223;27;97249;-59
2023/10/04 11:33:23;;;;;;;4.77;2.00;;;;;;;17.96;52.13;102199.31;5020196;27;97181;-58
2023/10/04 11:35:49;;;;;;;5.40;2.70;;;;;;;17.91;52.27;102207.78;5023019;27;97161;-60